sensor_id;sensor_type;location;lat;lon;timestamp;temperature;humidity
27795;DHT22;15176;50.844;4.412;2023-03-15T00:01:15;6.90;99.90
27795;DHT22;15176;50.844;4.412;2023-03-15T00:03:43;6.80;99.90
27795;DHT22;15176;50.844;4.412;2023-03-15T00:06:10;6.80;99.90
27795;DHT22;15176;50.844;4.412;2023-03-15T00:08:36;7.10;99.90
27795;DHT22;15176;50.844;4.412;2023-03-15T00:11:02;7.20;99.90
27795;DHT22;15176;50.844;4.412;2023-03-15T00:13:29;7.30;99.90
27795;DHT22;15176;50.844;4.412;2023-03-15T00:16:02;7.50;99.90
27795;DHT22;15176;50.844;4.412;2023-03-15T00:18:34;7.90;99.90
27795;DHT22;15176;50.844;4.412;2023-03-15T00:21:00;8.20;99.90
27795;DHT22;15176;50.844;4.412;2023-03-15T00:23:27;7.70;99.90
27795;DHT22;15176;50.844;4.412;2023-03-15T00:25:54;7.70;99.90
27795;DHT22;15176;50.844;4.412;2023-03-15T00:28:25;7.70;99.90
27795;DHT22;15176;50.844;4.412;2023-03-15T00:31:06;7.60;99.90
27795;DHT22;15176;50.844;4.412;2023-03-15T00:33:32;7.10;99.90
27795;DHT22;15176;50.844;4.412;2023-03-15T00:36:05;7.10;99.90
27795;DHT22;15176;50.844;4.412;2023-03-15T00:38:32;7.00;99.90
27795;DHT22;15176;50.844;4.412;2023-03-15T00:41:05;6.80;99.90
27795;DHT22;15176;50.844;4.412;2023-03-15T00:43:31;6.90;99.90
27795;DHT22;15176;50.844;4.412;2023-03-15T00:46:05;6.80;99.90
27795;DHT22;15176;50.844;4.412;2023-03-15T00:48:31;6.40;99.90
27795;DHT22;15176;50.844;4.412;2023-03-15T00:51:08;6.40;99.90
27795;DHT22;15176;50.844;4.412;2023-03-15T00:53:37;6.60;99.90
27795;DHT22;15176;50.844;4.412;2023-03-15T00:56:10;6.50;99.90
27795;DHT22;15176;50.844;4.412;2023-03-15T00:58:37;6.30;99.90
27795;DHT22;15176;50.844;4.412;2023-03-15T01:01:22;6.30;99.90
27795;DHT22;15176;50.844;4.412;2023-03-15T01:03:47;6.10;99.90
27795;DHT22;15176;50.844;4.412;2023-03-15T01:06:16;6.00;99.90
27795;DHT22;15176;50.844;4.412;2023-03-15T01:08:43;5.90;99.90
27795;DHT22;15176;50.844;4.412;2023-03-15T01:11:12;6.00;99.90
27795;DHT22;15176;50.844;4.412;2023-03-15T01:13:39;5.90;99.90
27795;DHT22;15176;50.844;4.412;2023-03-15T01:16:06;5.90;99.90
27795;DHT22;15176;50.844;4.412;2023-03-15T01:18:32;5.60;99.90
27795;DHT22;15176;50.844;4.412;2023-03-15T01:20:58;5.60;99.90
27795;DHT22;15176;50.844;4.412;2023-03-15T01:23:24;5.70;99.90
27795;DHT22;15176;50.844;4.412;2023-03-15T01:25:50;5.60;99.90
27795;DHT22;15176;50.844;4.412;2023-03-15T01:28:16;5.50;99.90
27795;DHT22;15176;50.844;4.412;2023-03-15T01:30:52;5.40;99.90
27795;DHT22;15176;50.844;4.412;2023-03-15T01:33:19;5.50;99.90
27795;DHT22;15176;50.844;4.412;2023-03-15T01:35:45;5.70;99.90
27795;DHT22;15176;50.844;4.412;2023-03-15T01:38:17;5.50;99.90
27795;DHT22;15176;50.844;4.412;2023-03-15T01:40:44;5.30;99.90
27795;DHT22;15176;50.844;4.412;2023-03-15T01:43:14;5.40;99.90
27795;DHT22;15176;50.844;4.412;2023-03-15T01:48:52;5.90;99.90
27795;DHT22;15176;50.844;4.412;2023-03-15T01:51:23;6.20;99.90
27795;DHT22;15176;50.844;4.412;2023-03-15T01:54:18;6.20;99.90
27795;DHT22;15176;50.844;4.412;2023-03-15T01:56:56;6.20;99.90
27795;DHT22;15176;50.844;4.412;2023-03-15T01:59:29;6.10;99.90
27795;DHT22;15176;50.844;4.412;2023-03-15T02:01:56;6.30;99.90
27795;DHT22;15176;50.844;4.412;2023-03-15T02:04:37;6.20;99.90
27795;DHT22;15176;50.844;4.412;2023-03-15T02:07:05;6.00;99.90
27795;DHT22;15176;50.844;4.412;2023-03-15T02:12:23;6.00;99.90
27795;DHT22;15176;50.844;4.412;2023-03-15T02:14:50;6.10;99.90
27795;DHT22;15176;50.844;4.412;2023-03-15T02:17:18;6.00;99.90
27795;DHT22;15176;50.844;4.412;2023-03-15T02:22:27;6.30;99.90
27795;DHT22;15176;50.844;4.412;2023-03-15T02:28:04;6.30;99.90
27795;DHT22;15176;50.844;4.412;2023-03-15T02:30:30;6.20;99.90
27795;DHT22;15176;50.844;4.412;2023-03-15T02:32:59;6.00;99.90
27795;DHT22;15176;50.844;4.412;2023-03-15T02:35:28;6.30;99.90
27795;DHT22;15176;50.844;4.412;2023-03-15T02:38:04;6.50;99.90
27795;DHT22;15176;50.844;4.412;2023-03-15T02:40:30;6.40;99.90
27795;DHT22;15176;50.844;4.412;2023-03-15T02:43:10;6.40;99.90
27795;DHT22;15176;50.844;4.412;2023-03-15T02:45:38;6.20;99.90
27795;DHT22;15176;50.844;4.412;2023-03-15T02:48:05;6.10;99.90
27795;DHT22;15176;50.844;4.412;2023-03-15T02:50:32;6.10;99.90
27795;DHT22;15176;50.844;4.412;2023-03-15T02:53:03;6.40;99.90
27795;DHT22;15176;50.844;4.412;2023-03-15T02:55:30;6.50;99.90
27795;DHT22;15176;50.844;4.412;2023-03-15T02:58:05;6.30;99.90
27795;DHT22;15176;50.844;4.412;2023-03-15T03:00:31;6.10;99.90
27795;DHT22;15176;50.844;4.412;2023-03-15T03:02:57;5.90;99.90
27795;DHT22;15176;50.844;4.412;2023-03-15T03:05:23;5.90;99.90
27795;DHT22;15176;50.844;4.412;2023-03-15T03:07:57;5.90;99.90
27795;DHT22;15176;50.844;4.412;2023-03-15T03:10:24;6.00;99.90
27795;DHT22;15176;50.844;4.412;2023-03-15T03:12:50;6.10;99.90
27795;DHT22;15176;50.844;4.412;2023-03-15T03:15:19;6.10;99.90
27795;DHT22;15176;50.844;4.412;2023-03-15T03:17:46;6.00;99.90
27795;DHT22;15176;50.844;4.412;2023-03-15T03:20:12;6.30;99.90
27795;DHT22;15176;50.844;4.412;2023-03-15T03:22:39;6.50;99.90
27795;DHT22;15176;50.844;4.412;2023-03-15T03:25:07;6.20;99.90
27795;DHT22;15176;50.844;4.412;2023-03-15T03:27:34;5.90;99.90
27795;DHT22;15176;50.844;4.412;2023-03-15T03:30:04;6.00;99.90
27795;DHT22;15176;50.844;4.412;2023-03-15T03:32:30;6.20;99.90
27795;DHT22;15176;50.844;4.412;2023-03-15T03:34:56;6.00;99.90
27795;DHT22;15176;50.844;4.412;2023-03-15T03:37:22;6.00;99.90
27795;DHT22;15176;50.844;4.412;2023-03-15T03:39:48;6.10;99.90
27795;DHT22;15176;50.844;4.412;2023-03-15T03:42:13;6.30;99.90
27795;DHT22;15176;50.844;4.412;2023-03-15T03:44:40;6.30;99.90
27795;DHT22;15176;50.844;4.412;2023-03-15T03:47:06;6.40;99.90
27795;DHT22;15176;50.844;4.412;2023-03-15T03:49:35;6.50;99.90
27795;DHT22;15176;50.844;4.412;2023-03-15T03:52:08;6.50;99.90
27795;DHT22;15176;50.844;4.412;2023-03-15T03:54:34;6.20;99.90
27795;DHT22;15176;50.844;4.412;2023-03-15T03:57:00;6.20;99.90
27795;DHT22;15176;50.844;4.412;2023-03-15T03:59:25;6.10;99.90
27795;DHT22;15176;50.844;4.412;2023-03-15T04:01:51;6.30;99.90
27795;DHT22;15176;50.844;4.412;2023-03-15T04:04:17;6.40;99.90
27795;DHT22;15176;50.844;4.412;2023-03-15T04:06:42;6.30;99.90
27795;DHT22;15176;50.844;4.412;2023-03-15T04:09:11;6.40;99.90
27795;DHT22;15176;50.844;4.412;2023-03-15T04:11:39;6.30;99.90
27795;DHT22;15176;50.844;4.412;2023-03-15T04:14:08;6.40;99.90
27795;DHT22;15176;50.844;4.412;2023-03-15T04:16:33;6.10;99.90
27795;DHT22;15176;50.844;4.412;2023-03-15T04:18:59;6.20;99.90
27795;DHT22;15176;50.844;4.412;2023-03-15T04:21:25;6.50;99.90
27795;DHT22;15176;50.844;4.412;2023-03-15T04:23:50;6.40;99.90
27795;DHT22;15176;50.844;4.412;2023-03-15T04:26:16;6.50;99.90
27795;DHT22;15176;50.844;4.412;2023-03-15T04:28:48;6.60;99.90
27795;DHT22;15176;50.844;4.412;2023-03-15T04:31:14;6.70;99.90
27795;DHT22;15176;50.844;4.412;2023-03-15T04:33:39;6.90;99.90
27795;DHT22;15176;50.844;4.412;2023-03-15T04:36:05;6.90;99.90
27795;DHT22;15176;50.844;4.412;2023-03-15T04:38:31;7.30;99.90
27795;DHT22;15176;50.844;4.412;2023-03-15T04:40:58;7.50;99.90
27795;DHT22;15176;50.844;4.412;2023-03-15T04:43:24;7.10;99.90
27795;DHT22;15176;50.844;4.412;2023-03-15T04:45:50;7.20;99.90
27795;DHT22;15176;50.844;4.412;2023-03-15T04:48:16;7.20;99.90
27795;DHT22;15176;50.844;4.412;2023-03-15T04:50:41;7.10;99.90
27795;DHT22;15176;50.844;4.412;2023-03-15T04:53:07;7.20;99.90
27795;DHT22;15176;50.844;4.412;2023-03-15T04:55:33;6.80;99.90
27795;DHT22;15176;50.844;4.412;2023-03-15T04:57:58;6.90;99.90
27795;DHT22;15176;50.844;4.412;2023-03-15T05:00:24;6.70;99.90
27795;DHT22;15176;50.844;4.412;2023-03-15T05:02:50;6.90;99.90
27795;DHT22;15176;50.844;4.412;2023-03-15T05:05:21;7.00;99.90
27795;DHT22;15176;50.844;4.412;2023-03-15T05:07:47;7.30;99.90
27795;DHT22;15176;50.844;4.412;2023-03-15T05:10:13;7.10;99.90
27795;DHT22;15176;50.844;4.412;2023-03-15T05:12:41;7.00;99.90
27795;DHT22;15176;50.844;4.412;2023-03-15T05:15:07;7.10;99.90
27795;DHT22;15176;50.844;4.412;2023-03-15T05:17:33;7.10;99.90
27795;DHT22;15176;50.844;4.412;2023-03-15T05:19:59;7.30;99.90
27795;DHT22;15176;50.844;4.412;2023-03-15T05:22:35;7.30;99.90
27795;DHT22;15176;50.844;4.412;2023-03-15T05:25:09;7.10;99.90
27795;DHT22;15176;50.844;4.412;2023-03-15T05:27:35;7.20;99.90
27795;DHT22;15176;50.844;4.412;2023-03-15T05:30:08;7.10;99.90
27795;DHT22;15176;50.844;4.412;2023-03-15T05:32:35;7.80;99.90
27795;DHT22;15176;50.844;4.412;2023-03-15T05:35:06;7.80;99.90
27795;DHT22;15176;50.844;4.412;2023-03-15T05:37:35;7.80;99.90
27795;DHT22;15176;50.844;4.412;2023-03-15T05:40:03;8.20;99.90
27795;DHT22;15176;50.844;4.412;2023-03-15T05:42:33;8.10;99.90
27795;DHT22;15176;50.844;4.412;2023-03-15T05:45:04;7.90;99.90
27795;DHT22;15176;50.844;4.412;2023-03-15T05:47:32;8.30;99.90
27795;DHT22;15176;50.844;4.412;2023-03-15T05:49:58;8.60;99.90
27795;DHT22;15176;50.844;4.412;2023-03-15T05:52:24;8.90;99.90
27795;DHT22;15176;50.844;4.412;2023-03-15T05:54:50;8.90;99.90
27795;DHT22;15176;50.844;4.412;2023-03-15T05:57:16;8.60;99.90
27795;DHT22;15176;50.844;4.412;2023-03-15T05:59:42;8.80;99.90
27795;DHT22;15176;50.844;4.412;2023-03-15T06:02:08;8.50;99.90
27795;DHT22;15176;50.844;4.412;2023-03-15T06:04:34;7.90;99.90
27795;DHT22;15176;50.844;4.412;2023-03-15T06:07:03;7.80;99.90
27795;DHT22;15176;50.844;4.412;2023-03-15T06:09:29;7.70;99.90
27795;DHT22;15176;50.844;4.412;2023-03-15T06:11:55;7.80;99.90
27795;DHT22;15176;50.844;4.412;2023-03-15T06:14:21;8.40;99.90
27795;DHT22;15176;50.844;4.412;2023-03-15T06:16:47;8.70;99.90
27795;DHT22;15176;50.844;4.412;2023-03-15T06:19:20;8.30;99.90
27795;DHT22;15176;50.844;4.412;2023-03-15T06:21:46;8.10;99.90
27795;DHT22;15176;50.844;4.412;2023-03-15T06:24:12;8.10;99.90
27795;DHT22;15176;50.844;4.412;2023-03-15T06:26:39;8.10;99.90
27795;DHT22;15176;50.844;4.412;2023-03-15T06:29:05;8.20;99.90
27795;DHT22;15176;50.844;4.412;2023-03-15T06:31:32;8.30;99.90
27795;DHT22;15176;50.844;4.412;2023-03-15T06:33:58;8.10;99.90
27795;DHT22;15176;50.844;4.412;2023-03-15T06:36:27;8.20;99.90
27795;DHT22;15176;50.844;4.412;2023-03-15T06:38:55;8.30;99.90
27795;DHT22;15176;50.844;4.412;2023-03-15T06:41:24;8.40;99.90
27795;DHT22;15176;50.844;4.412;2023-03-15T06:43:53;8.20;99.90
27795;DHT22;15176;50.844;4.412;2023-03-15T06:46:20;8.50;99.90
27795;DHT22;15176;50.844;4.412;2023-03-15T06:48:48;8.30;99.90
27795;DHT22;15176;50.844;4.412;2023-03-15T06:51:17;8.30;99.90
27795;DHT22;15176;50.844;4.412;2023-03-15T06:53:44;8.50;99.90
27795;DHT22;15176;50.844;4.412;2023-03-15T06:56:10;8.80;99.90
27795;DHT22;15176;50.844;4.412;2023-03-15T06:58:43;9.00;99.90
27795;DHT22;15176;50.844;4.412;2023-03-15T07:01:11;8.60;99.90
27795;DHT22;15176;50.844;4.412;2023-03-15T07:03:39;8.90;99.90
27795;DHT22;15176;50.844;4.412;2023-03-15T07:06:14;9.50;99.90
27795;DHT22;15176;50.844;4.412;2023-03-15T07:08:40;9.60;99.90
27795;DHT22;15176;50.844;4.412;2023-03-15T07:11:06;9.70;99.90
27795;DHT22;15176;50.844;4.412;2023-03-15T07:13:31;10.00;99.90
27795;DHT22;15176;50.844;4.412;2023-03-15T07:16:05;10.70;99.90
27795;DHT22;15176;50.844;4.412;2023-03-15T07:18:32;11.10;99.90
27795;DHT22;15176;50.844;4.412;2023-03-15T07:21:03;11.20;99.90
27795;DHT22;15176;50.844;4.412;2023-03-15T07:23:30;11.10;99.90
27795;DHT22;15176;50.844;4.412;2023-03-15T07:25:55;10.90;99.90
27795;DHT22;15176;50.844;4.412;2023-03-15T07:28:23;10.50;99.90
27795;DHT22;15176;50.844;4.412;2023-03-15T07:30:58;10.20;99.90
27795;DHT22;15176;50.844;4.412;2023-03-15T07:33:32;10.20;99.90
27795;DHT22;15176;50.844;4.412;2023-03-15T07:35:58;10.30;99.90
27795;DHT22;15176;50.844;4.412;2023-03-15T07:38:27;10.20;99.90
27795;DHT22;15176;50.844;4.412;2023-03-15T07:40:53;9.90;99.90
27795;DHT22;15176;50.844;4.412;2023-03-15T07:43:28;9.70;99.90
27795;DHT22;15176;50.844;4.412;2023-03-15T07:45:54;9.80;99.90
27795;DHT22;15176;50.844;4.412;2023-03-15T07:48:20;9.90;99.90
27795;DHT22;15176;50.844;4.412;2023-03-15T07:50:51;10.00;99.90
27795;DHT22;15176;50.844;4.412;2023-03-15T07:53:23;9.30;99.90
27795;DHT22;15176;50.844;4.412;2023-03-15T07:55:50;9.40;99.90
27795;DHT22;15176;50.844;4.412;2023-03-15T07:58:16;9.80;99.90
27795;DHT22;15176;50.844;4.412;2023-03-15T08:00:43;9.20;99.90
27795;DHT22;15176;50.844;4.412;2023-03-15T08:03:12;9.10;99.90
27795;DHT22;15176;50.844;4.412;2023-03-15T08:05:38;9.20;99.90
27795;DHT22;15176;50.844;4.412;2023-03-15T08:08:04;9.90;99.90
27795;DHT22;15176;50.844;4.412;2023-03-15T08:10:30;10.90;99.90
27795;DHT22;15176;50.844;4.412;2023-03-15T08:12:59;11.60;99.90
27795;DHT22;15176;50.844;4.412;2023-03-15T08:15:26;11.80;99.90
27795;DHT22;15176;50.844;4.412;2023-03-15T08:17:52;12.50;99.90
27795;DHT22;15176;50.844;4.412;2023-03-15T08:20:18;12.90;99.90
27795;DHT22;15176;50.844;4.412;2023-03-15T08:22:54;12.80;99.90
27795;DHT22;15176;50.844;4.412;2023-03-15T08:25:26;13.10;99.90
27795;DHT22;15176;50.844;4.412;2023-03-15T08:27:52;13.00;99.90
27795;DHT22;15176;50.844;4.412;2023-03-15T08:30:21;13.00;99.90
27795;DHT22;15176;50.844;4.412;2023-03-15T08:32:48;12.50;99.90
27795;DHT22;15176;50.844;4.412;2023-03-15T08:35:21;12.20;99.90
27795;DHT22;15176;50.844;4.412;2023-03-15T08:37:47;12.60;99.90
27795;DHT22;15176;50.844;4.412;2023-03-15T08:40:18;12.60;99.90
27795;DHT22;15176;50.844;4.412;2023-03-15T08:42:51;12.70;99.90
27795;DHT22;15176;50.844;4.412;2023-03-15T08:45:18;12.30;99.90
27795;DHT22;15176;50.844;4.412;2023-03-15T08:47:44;12.00;99.90
27795;DHT22;15176;50.844;4.412;2023-03-15T08:50:15;11.60;99.90
27795;DHT22;15176;50.844;4.412;2023-03-15T08:52:42;11.30;99.90
27795;DHT22;15176;50.844;4.412;2023-03-15T08:55:11;11.40;99.90
27795;DHT22;15176;50.844;4.412;2023-03-15T08:57:40;11.70;99.90
27795;DHT22;15176;50.844;4.412;2023-03-15T09:00:12;12.20;99.90
27795;DHT22;15176;50.844;4.412;2023-03-15T09:02:43;12.40;99.90
27795;DHT22;15176;50.844;4.412;2023-03-15T09:05:09;12.40;99.90
27795;DHT22;15176;50.844;4.412;2023-03-15T09:07:37;12.20;99.90
27795;DHT22;15176;50.844;4.412;2023-03-15T09:10:04;12.50;99.90
27795;DHT22;15176;50.844;4.412;2023-03-15T09:12:30;13.60;99.90
27795;DHT22;15176;50.844;4.412;2023-03-15T09:14:58;14.90;99.90
27795;DHT22;15176;50.844;4.412;2023-03-15T09:17:24;15.50;99.60
27795;DHT22;15176;50.844;4.412;2023-03-15T09:19:50;16.00;96.60
27795;DHT22;15176;50.844;4.412;2023-03-15T09:22:18;16.50;92.90
27795;DHT22;15176;50.844;4.412;2023-03-15T09:24:44;17.40;91.70
27795;DHT22;15176;50.844;4.412;2023-03-15T09:27:16;17.60;91.80
27795;DHT22;15176;50.844;4.412;2023-03-15T09:29:43;18.10;83.80
27795;DHT22;15176;50.844;4.412;2023-03-15T09:32:09;17.80;78.70
27795;DHT22;15176;50.844;4.412;2023-03-15T09:34:38;17.90;78.70
27795;DHT22;15176;50.844;4.412;2023-03-15T09:37:12;17.70;78.70
27795;DHT22;15176;50.844;4.412;2023-03-15T09:39:38;17.90;80.50
27795;DHT22;15176;50.844;4.412;2023-03-15T09:45:22;17.30;75.50
27795;DHT22;15176;50.844;4.412;2023-03-15T09:48:29;15.70;77.80
27795;DHT22;15176;50.844;4.412;2023-03-15T09:51:01;15.30;85.00
27795;DHT22;15176;50.844;4.412;2023-03-15T09:53:35;15.00;86.80
27795;DHT22;15176;50.844;4.412;2023-03-15T09:56:21;14.70;88.70
27795;DHT22;15176;50.844;4.412;2023-03-15T09:58:55;14.10;90.70
27795;DHT22;15176;50.844;4.412;2023-03-15T10:01:28;13.80;91.80
27795;DHT22;15176;50.844;4.412;2023-03-15T10:03:58;13.60;92.80
27795;DHT22;15176;50.844;4.412;2023-03-15T10:06:30;13.40;93.60
27795;DHT22;15176;50.844;4.412;2023-03-15T10:09:03;13.60;94.10
27795;DHT22;15176;50.844;4.412;2023-03-15T10:20:38;12.70;94.30
27795;DHT22;15176;50.844;4.412;2023-03-15T10:23:18;12.90;93.90
27795;DHT22;15176;50.844;4.412;2023-03-15T10:25:45;12.80;95.20
27795;DHT22;15176;50.844;4.412;2023-03-15T10:28:30;12.90;94.10
27795;DHT22;15176;50.844;4.412;2023-03-15T10:31:00;13.20;93.90
27795;DHT22;15176;50.844;4.412;2023-03-15T10:33:35;13.60;95.90
27795;DHT22;15176;50.844;4.412;2023-03-15T10:36:09;13.60;91.90
27795;DHT22;15176;50.844;4.412;2023-03-15T10:39:03;13.20;92.10
27795;DHT22;15176;50.844;4.412;2023-03-15T10:41:45;13.60;92.20
27795;DHT22;15176;50.844;4.412;2023-03-15T10:44:39;14.70;93.10
27795;DHT22;15176;50.844;4.412;2023-03-15T10:47:18;16.10;87.40
27795;DHT22;15176;50.844;4.412;2023-03-15T10:49:44;16.80;84.70
27795;DHT22;15176;50.844;4.412;2023-03-15T10:52:27;17.40;81.50
27795;DHT22;15176;50.844;4.412;2023-03-15T10:54:52;17.80;75.70
27795;DHT22;15176;50.844;4.412;2023-03-15T10:57:19;17.70;68.60
27795;DHT22;15176;50.844;4.412;2023-03-15T11:00:01;18.40;68.70
27795;DHT22;15176;50.844;4.412;2023-03-15T11:03:06;18.50;68.90
27795;DHT22;15176;50.844;4.412;2023-03-15T11:05:44;19.50;62.40
27795;DHT22;15176;50.844;4.412;2023-03-15T11:08:13;19.00;59.90
27795;DHT22;15176;50.844;4.412;2023-03-15T11:10:39;18.00;63.30
27795;DHT22;15176;50.844;4.412;2023-03-15T11:13:28;17.60;63.10
27795;DHT22;15176;50.844;4.412;2023-03-15T11:21:15;17.90;62.20
27795;DHT22;15176;50.844;4.412;2023-03-15T11:23:49;18.20;63.00
27795;DHT22;15176;50.844;4.412;2023-03-15T11:26:22;17.90;59.20
27795;DHT22;15176;50.844;4.412;2023-03-15T11:28:51;17.90;62.00
27795;DHT22;15176;50.844;4.412;2023-03-15T11:31:25;17.70;61.00
27795;DHT22;15176;50.844;4.412;2023-03-15T11:34:07;17.10;60.90
27795;DHT22;15176;50.844;4.412;2023-03-15T11:36:39;16.90;61.90
27795;DHT22;15176;50.844;4.412;2023-03-15T11:39:23;17.20;62.20
27795;DHT22;15176;50.844;4.412;2023-03-15T11:42:12;17.10;61.40
27795;DHT22;15176;50.844;4.412;2023-03-15T11:44:47;15.70;67.20
27795;DHT22;15176;50.844;4.412;2023-03-15T11:47:19;15.50;69.10
27795;DHT22;15176;50.844;4.412;2023-03-15T11:49:56;16.40;63.20
27795;DHT22;15176;50.844;4.412;2023-03-15T11:52:24;17.30;61.10
27795;DHT22;15176;50.844;4.412;2023-03-15T11:54:54;17.30;61.30
27795;DHT22;15176;50.844;4.412;2023-03-15T11:57:38;17.30;61.20
27795;DHT22;15176;50.844;4.412;2023-03-15T12:02:57;18.80;59.00
27795;DHT22;15176;50.844;4.412;2023-03-15T12:11:36;19.60;53.30
27795;DHT22;15176;50.844;4.412;2023-03-15T12:14:03;19.00;53.60
27795;DHT22;15176;50.844;4.412;2023-03-15T12:16:41;19.00;54.50
27795;DHT22;15176;50.844;4.412;2023-03-15T12:19:15;18.90;53.20
27795;DHT22;15176;50.844;4.412;2023-03-15T12:21:48;18.60;50.90
27795;DHT22;15176;50.844;4.412;2023-03-15T12:29:26;17.20;52.60
27795;DHT22;15176;50.844;4.412;2023-03-15T12:32:05;17.10;52.50
27795;DHT22;15176;50.844;4.412;2023-03-15T12:34:57;16.50;56.00
27795;DHT22;15176;50.844;4.412;2023-03-15T12:37:36;17.30;53.20
27795;DHT22;15176;50.844;4.412;2023-03-15T12:58:45;18.10;50.80
27795;DHT22;15176;50.844;4.412;2023-03-15T13:01:15;18.70;46.10
27795;DHT22;15176;50.844;4.412;2023-03-15T13:03:41;18.10;46.50
27795;DHT22;15176;50.844;4.412;2023-03-15T13:06:18;18.30;47.20
27795;DHT22;15176;50.844;4.412;2023-03-15T13:09:13;18.20;49.20
27795;DHT22;15176;50.844;4.412;2023-03-15T13:11:57;18.00;45.70
27795;DHT22;15176;50.844;4.412;2023-03-15T13:17:30;16.60;50.20
27795;DHT22;15176;50.844;4.412;2023-03-15T13:23:05;15.90;51.50
27795;DHT22;15176;50.844;4.412;2023-03-15T13:28:45;15.70;52.30
27795;DHT22;15176;50.844;4.412;2023-03-15T13:31:15;15.60;53.30
27795;DHT22;15176;50.844;4.412;2023-03-15T13:33:46;15.50;54.30
27795;DHT22;15176;50.844;4.412;2023-03-15T13:36:14;15.60;54.80
27795;DHT22;15176;50.844;4.412;2023-03-15T13:41:22;16.00;54.70
27795;DHT22;15176;50.844;4.412;2023-03-15T13:43:50;16.30;53.80
27795;DHT22;15176;50.844;4.412;2023-03-15T13:46:20;16.20;52.20
27795;DHT22;15176;50.844;4.412;2023-03-15T13:48:52;15.80;51.10
27795;DHT22;15176;50.844;4.412;2023-03-15T13:51:33;15.20;52.30
27795;DHT22;15176;50.844;4.412;2023-03-15T13:54:23;15.30;55.10
27795;DHT22;15176;50.844;4.412;2023-03-15T13:57:06;15.30;53.30
27795;DHT22;15176;50.844;4.412;2023-03-15T13:59:43;15.30;54.00
27795;DHT22;15176;50.844;4.412;2023-03-15T14:02:21;15.00;54.70
27795;DHT22;15176;50.844;4.412;2023-03-15T14:04:56;14.70;57.60
27795;DHT22;15176;50.844;4.412;2023-03-15T14:07:53;14.90;58.10
27795;DHT22;15176;50.844;4.412;2023-03-15T14:12:49;14.70;54.40
27795;DHT22;15176;50.844;4.412;2023-03-15T14:15:21;14.30;56.60
27795;DHT22;15176;50.844;4.412;2023-03-15T14:18:01;14.50;57.40
27795;DHT22;15176;50.844;4.412;2023-03-15T14:20:42;14.50;57.00
27795;DHT22;15176;50.844;4.412;2023-03-15T14:23:14;14.70;56.80
27795;DHT22;15176;50.844;4.412;2023-03-15T14:25:41;14.60;57.20
27795;DHT22;15176;50.844;4.412;2023-03-15T14:28:12;14.60;57.20
27795;DHT22;15176;50.844;4.412;2023-03-15T14:30:39;14.20;58.60
27795;DHT22;15176;50.844;4.412;2023-03-15T14:33:06;14.40;56.90
27795;DHT22;15176;50.844;4.412;2023-03-15T14:38:18;14.60;59.90
27795;DHT22;15176;50.844;4.412;2023-03-15T14:40:47;15.00;59.70
27795;DHT22;15176;50.844;4.412;2023-03-15T14:43:19;15.10;60.40
27795;DHT22;15176;50.844;4.412;2023-03-15T14:45:53;15.00;56.50
27795;DHT22;15176;50.844;4.412;2023-03-15T14:48:29;15.00;60.80
27795;DHT22;15176;50.844;4.412;2023-03-15T14:50:56;14.90;57.00
27795;DHT22;15176;50.844;4.412;2023-03-15T14:53:23;14.50;58.90
27795;DHT22;15176;50.844;4.412;2023-03-15T14:55:50;14.10;57.50
27795;DHT22;15176;50.844;4.412;2023-03-15T14:58:19;13.90;59.10
27795;DHT22;15176;50.844;4.412;2023-03-15T15:00:51;14.60;59.70
27795;DHT22;15176;50.844;4.412;2023-03-15T15:03:34;14.30;59.70
27795;DHT22;15176;50.844;4.412;2023-03-15T15:06:03;14.30;58.30
27795;DHT22;15176;50.844;4.412;2023-03-15T15:08:30;14.20;58.50
27795;DHT22;15176;50.844;4.412;2023-03-15T15:10:56;14.50;57.70
27795;DHT22;15176;50.844;4.412;2023-03-15T15:13:28;14.30;58.70
27795;DHT22;15176;50.844;4.412;2023-03-15T15:16:00;14.70;57.20
27795;DHT22;15176;50.844;4.412;2023-03-15T15:18:28;14.40;58.20
27795;DHT22;15176;50.844;4.412;2023-03-15T15:20:55;14.40;58.10
27795;DHT22;15176;50.844;4.412;2023-03-15T15:23:34;14.20;59.30
27795;DHT22;15176;50.844;4.412;2023-03-15T15:26:02;13.90;59.20
27795;DHT22;15176;50.844;4.412;2023-03-15T15:28:29;14.40;61.80
27795;DHT22;15176;50.844;4.412;2023-03-15T15:30:56;14.20;59.00
27795;DHT22;15176;50.844;4.412;2023-03-15T15:33:22;13.70;60.00
27795;DHT22;15176;50.844;4.412;2023-03-15T15:35:51;13.90;60.10
27795;DHT22;15176;50.844;4.412;2023-03-15T15:38:18;13.90;58.80
27795;DHT22;15176;50.844;4.412;2023-03-15T15:40:44;14.30;58.80
27795;DHT22;15176;50.844;4.412;2023-03-15T15:43:10;14.40;59.80
27795;DHT22;15176;50.844;4.412;2023-03-15T15:45:37;15.00;56.50
27795;DHT22;15176;50.844;4.412;2023-03-15T15:48:02;14.80;57.70
27795;DHT22;15176;50.844;4.412;2023-03-15T15:50:33;14.10;58.80
27795;DHT22;15176;50.844;4.412;2023-03-15T15:53:02;13.60;59.60
27795;DHT22;15176;50.844;4.412;2023-03-15T15:55:34;13.70;62.20
27795;DHT22;15176;50.844;4.412;2023-03-15T15:58:01;14.10;59.30
27795;DHT22;15176;50.844;4.412;2023-03-15T16:00:27;14.10;60.80
27795;DHT22;15176;50.844;4.412;2023-03-15T16:02:54;14.30;58.70
27795;DHT22;15176;50.844;4.412;2023-03-15T16:05:22;14.70;59.40
27795;DHT22;15176;50.844;4.412;2023-03-15T16:07:52;15.00;58.40
27795;DHT22;15176;50.844;4.412;2023-03-15T16:10:27;14.90;57.40
27795;DHT22;15176;50.844;4.412;2023-03-15T16:13:02;14.50;57.50
27795;DHT22;15176;50.844;4.412;2023-03-15T16:15:35;15.00;59.70
27795;DHT22;15176;50.844;4.412;2023-03-15T16:18:07;15.00;57.70
27795;DHT22;15176;50.844;4.412;2023-03-15T16:20:33;14.40;59.50
27795;DHT22;15176;50.844;4.412;2023-03-15T16:22:59;13.80;58.80
27795;DHT22;15176;50.844;4.412;2023-03-15T16:25:30;14.10;63.20
27795;DHT22;15176;50.844;4.412;2023-03-15T16:27:59;14.20;60.20
27795;DHT22;15176;50.844;4.412;2023-03-15T16:30:27;13.80;60.70
27795;DHT22;15176;50.844;4.412;2023-03-15T16:32:55;13.30;62.10
27795;DHT22;15176;50.844;4.412;2023-03-15T16:35:31;13.20;63.90
27795;DHT22;15176;50.844;4.412;2023-03-15T16:38:00;13.50;62.80
27795;DHT22;15176;50.844;4.412;2023-03-15T16:40:28;13.30;63.70
27795;DHT22;15176;50.844;4.412;2023-03-15T16:42:56;13.30;62.70
27795;DHT22;15176;50.844;4.412;2023-03-15T16:45:22;13.00;65.80
27795;DHT22;15176;50.844;4.412;2023-03-15T16:47:48;13.50;65.70
27795;DHT22;15176;50.844;4.412;2023-03-15T16:50:15;14.00;64.40
27795;DHT22;15176;50.844;4.412;2023-03-15T16:52:42;13.50;61.80
27795;DHT22;15176;50.844;4.412;2023-03-15T16:55:17;13.30;66.80
27795;DHT22;15176;50.844;4.412;2023-03-15T16:57:44;13.70;66.20
27795;DHT22;15176;50.844;4.412;2023-03-15T17:00:12;13.70;61.30
27795;DHT22;15176;50.844;4.412;2023-03-15T17:02:48;13.70;60.40
27795;DHT22;15176;50.844;4.412;2023-03-15T17:05:16;13.70;65.60
27795;DHT22;15176;50.844;4.412;2023-03-15T17:07:49;14.40;62.50
27795;DHT22;15176;50.844;4.412;2023-03-15T17:10:30;14.20;60.30
27795;DHT22;15176;50.844;4.412;2023-03-15T17:12:58;14.00;62.40
27795;DHT22;15176;50.844;4.412;2023-03-15T17:15:26;13.70;59.70